sensor_id;sensor_type;location;lat;lon;timestamp;P1;durP1;ratioP1;P2;durP2;ratioP2
84023;SDS011;74109;45.636;25.582;2024-02-26T00:03:47;4.30;;;1.90;;
84023;SDS011;74109;45.636;25.582;2024-02-26T00:06:29;5.60;;;1.80;;
84023;SDS011;74109;45.636;25.582;2024-02-26T00:09:23;4.60;;;1.60;;
84023;SDS011;74109;45.636;25.582;2024-02-26T00:12:10;4.20;;;2.00;;
84023;SDS011;74109;45.636;25.582;2024-02-26T00:17:29;4.50;;;1.40;;
84023;SDS011;74109;45.636;25.582;2024-02-26T00:20:07;3.20;;;1.10;;
84023;SDS011;74109;45.636;25.582;2024-02-26T00:22:36;2.70;;;1.30;;
84023;SDS011;74109;45.636;25.582;2024-02-26T00:25:20;2.50;;;0.90;;
84023;SDS011;74109;45.636;25.582;2024-02-26T00:28:32;2.80;;;1.30;;
84023;SDS011;74109;45.636;25.582;2024-02-26T00:31:14;3.40;;;1.10;;
84023;SDS011;74109;45.636;25.582;2024-02-26T00:33:47;3.10;;;1.90;;
84023;SDS011;74109;45.636;25.582;2024-02-26T00:36:34;5.80;;;1.80;;
84023;SDS011;74109;45.636;25.582;2024-02-26T00:39:41;4.50;;;1.40;;
84023;SDS011;74109;45.636;25.582;2024-02-26T00:42:13;4.70;;;2.30;;
84023;SDS011;74109;45.636;25.582;2024-02-26T00:44:40;7.00;;;2.00;;
84023;SDS011;74109;45.636;25.582;2024-02-26T00:47:25;3.40;;;1.80;;
84023;SDS011;74109;45.636;25.582;2024-02-26T00:49:52;3.60;;;1.90;;
84023;SDS011;74109;45.636;25.582;2024-02-26T00:52:22;5.20;;;2.10;;
84023;SDS011;74109;45.636;25.582;2024-02-26T00:54:58;3.60;;;1.90;;
84023;SDS011;74109;45.636;25.582;2024-02-26T00:57:25;6.30;;;2.80;;
84023;SDS011;74109;45.636;25.582;2024-02-26T00:59:52;6.60;;;2.30;;
84023;SDS011;74109;45.636;25.582;2024-02-26T01:02:51;8.20;;;3.00;;
84023;SDS011;74109;45.636;25.582;2024-02-26T01:05:22;5.20;;;1.50;;
84023;SDS011;74109;45.636;25.582;2024-02-26T01:12:21;4.10;;;1.70;;
84023;SDS011;74109;45.636;25.582;2024-02-26T01:14:57;6.70;;;2.60;;
84023;SDS011;74109;45.636;25.582;2024-02-26T01:17:55;6.70;;;2.60;;
84023;SDS011;74109;45.636;25.582;2024-02-26T01:20:59;6.20;;;2.00;;
84023;SDS011;74109;45.636;25.582;2024-02-26T01:23:43;51.70;;;24.70;;
84023;SDS011;74109;45.636;25.582;2024-02-26T01:26:25;8.30;;;4.20;;
84023;SDS011;74109;45.636;25.582;2024-02-26T01:28:55;5.40;;;2.40;;
84023;SDS011;74109;45.636;25.582;2024-02-26T01:31:28;7.10;;;2.90;;
84023;SDS011;74109;45.636;25.582;2024-02-26T01:34:03;9.10;;;3.20;;
84023;SDS011;74109;45.636;25.582;2024-02-26T01:36:51;29.70;;;14.30;;
84023;SDS011;74109;45.636;25.582;2024-02-26T01:40:08;13.10;;;5.80;;
84023;SDS011;74109;45.636;25.582;2024-02-26T01:42:39;6.20;;;2.70;;
84023;SDS011;74109;45.636;25.582;2024-02-26T01:45:26;5.80;;;2.50;;
84023;SDS011;74109;45.636;25.582;2024-02-26T01:48:18;6.80;;;3.70;;
84023;SDS011;74109;45.636;25.582;2024-02-26T01:50:52;6.00;;;3.20;;
84023;SDS011;74109;45.636;25.582;2024-02-26T01:56:52;8.30;;;3.90;;
84023;SDS011;74109;45.636;25.582;2024-02-26T01:59:24;7.80;;;3.60;;
84023;SDS011;74109;45.636;25.582;2024-02-26T02:02:34;9.40;;;4.30;;
84023;SDS011;74109;45.636;25.582;2024-02-26T02:05:46;8.30;;;3.80;;
84023;SDS011;74109;45.636;25.582;2024-02-26T02:08:33;7.40;;;3.00;;
84023;SDS011;74109;45.636;25.582;2024-02-26T02:11:21;6.40;;;3.60;;
84023;SDS011;74109;45.636;25.582;2024-02-26T02:14:22;7.20;;;3.00;;
84023;SDS011;74109;45.636;25.582;2024-02-26T02:17:23;5.90;;;2.30;;
84023;SDS011;74109;45.636;25.582;2024-02-26T02:23:34;8.70;;;3.20;;
84023;SDS011;74109;45.636;25.582;2024-02-26T02:26:37;6.60;;;3.20;;
84023;SDS011;74109;45.636;25.582;2024-02-26T02:33:24;8.20;;;3.00;;
84023;SDS011;74109;45.636;25.582;2024-02-26T02:35:55;6.10;;;2.90;;
84023;SDS011;74109;45.636;25.582;2024-02-26T02:38:25;5.40;;;2.60;;
84023;SDS011;74109;45.636;25.582;2024-02-26T02:43:39;5.70;;;3.20;;
84023;SDS011;74109;45.636;25.582;2024-02-26T02:46:16;7.40;;;2.90;;
84023;SDS011;74109;45.636;25.582;2024-02-26T02:49:13;9.00;;;2.50;;
84023;SDS011;74109;45.636;25.582;2024-02-26T02:51:46;5.40;;;2.80;;
84023;SDS011;74109;45.636;25.582;2024-02-26T02:54:59;5.10;;;2.50;;
84023;SDS011;74109;45.636;25.582;2024-02-26T02:57:35;7.60;;;2.80;;
84023;SDS011;74109;45.636;25.582;2024-02-26T03:00:41;6.60;;;2.40;;
84023;SDS011;74109;45.636;25.582;2024-02-26T03:03:11;5.70;;;2.60;;
84023;SDS011;74109;45.636;25.582;2024-02-26T03:06:11;7.10;;;3.40;;
84023;SDS011;74109;45.636;25.582;2024-02-26T03:09:02;3.90;;;1.30;;
84023;SDS011;74109;45.636;25.582;2024-02-26T03:11:40;4.50;;;1.80;;
84023;SDS011;74109;45.636;25.582;2024-02-26T03:20:39;8.00;;;2.90;;
84023;SDS011;74109;45.636;25.582;2024-02-26T03:23:33;9.00;;;3.60;;
84023;SDS011;74109;45.636;25.582;2024-02-26T03:29:35;9.70;;;4.60;;
84023;SDS011;74109;45.636;25.582;2024-02-26T03:35:49;4.50;;;2.10;;
84023;SDS011;74109;45.636;25.582;2024-02-26T03:38:28;9.40;;;3.90;;
84023;SDS011;74109;45.636;25.582;2024-02-26T03:41:16;19.70;;;8.90;;
84023;SDS011;74109;45.636;25.582;2024-02-26T03:44:23;10.60;;;3.90;;
84023;SDS011;74109;45.636;25.582;2024-02-26T03:47:51;11.70;;;5.70;;
84023;SDS011;74109;45.636;25.582;2024-02-26T03:50:26;20.20;;;9.10;;
84023;SDS011;74109;45.636;25.582;2024-02-26T03:53:14;11.50;;;5.10;;
84023;SDS011;74109;45.636;25.582;2024-02-26T03:56:07;12.00;;;5.80;;
84023;SDS011;74109;45.636;25.582;2024-02-26T03:59:16;11.00;;;4.80;;
84023;SDS011;74109;45.636;25.582;2024-02-26T04:02:04;9.00;;;4.20;;
84023;SDS011;74109;45.636;25.582;2024-02-26T04:04:37;9.90;;;4.00;;
84023;SDS011;74109;45.636;25.582;2024-02-26T04:07:20;8.90;;;4.30;;
84023;SDS011;74109;45.636;25.582;2024-02-26T04:13:49;7.40;;;3.90;;
84023;SDS011;74109;45.636;25.582;2024-02-26T04:16:43;10.40;;;4.70;;
84023;SDS011;74109;45.636;25.582;2024-02-26T04:22:39;9.50;;;4.70;;
84023;SDS011;74109;45.636;25.582;2024-02-26T04:25:10;11.60;;;4.70;;
84023;SDS011;74109;45.636;25.582;2024-02-26T04:30:52;12.50;;;4.40;;
84023;SDS011;74109;45.636;25.582;2024-02-26T04:33:51;11.40;;;4.50;;
84023;SDS011;74109;45.636;25.582;2024-02-26T04:36:25;7.10;;;3.50;;
84023;SDS011;74109;45.636;25.582;2024-02-26T04:39:18;8.20;;;4.10;;
84023;SDS011;74109;45.636;25.582;2024-02-26T04:42:07;8.10;;;4.20;;
84023;SDS011;74109;45.636;25.582;2024-02-26T04:44:40;9.80;;;4.30;;
84023;SDS011;74109;45.636;25.582;2024-02-26T04:47:30;11.00;;;5.00;;
84023;SDS011;74109;45.636;25.582;2024-02-26T04:50:24;10.10;;;4.60;;
84023;SDS011;74109;45.636;25.582;2024-02-26T04:53:25;10.10;;;4.50;;
84023;SDS011;74109;45.636;25.582;2024-02-26T04:56:48;9.60;;;4.20;;
84023;SDS011;74109;45.636;25.582;2024-02-26T04:59:39;9.50;;;4.60;;
84023;SDS011;74109;45.636;25.582;2024-02-26T05:02:15;11.20;;;3.90;;
84023;SDS011;74109;45.636;25.582;2024-02-26T05:05:33;9.00;;;4.10;;
84023;SDS011;74109;45.636;25.582;2024-02-26T05:08:08;13.10;;;5.40;;
84023;SDS011;74109;45.636;25.582;2024-02-26T05:10:56;10.80;;;4.70;;
84023;SDS011;74109;45.636;25.582;2024-02-26T05:13:26;15.10;;;5.10;;
84023;SDS011;74109;45.636;25.582;2024-02-26T05:16:13;13.10;;;6.70;;
84023;SDS011;74109;45.636;25.582;2024-02-26T05:18:54;13.30;;;5.80;;
84023;SDS011;74109;45.636;25.582;2024-02-26T05:21:22;12.30;;;5.00;;
84023;SDS011;74109;45.636;25.582;2024-02-26T05:24:01;11.30;;;4.80;;
84023;SDS011;74109;45.636;25.582;2024-02-26T05:30:12;11.70;;;4.70;;
84023;SDS011;74109;45.636;25.582;2024-02-26T05:32:58;7.40;;;3.10;;
84023;SDS011;74109;45.636;25.582;2024-02-26T05:35:56;10.80;;;5.30;;
84023;SDS011;74109;45.636;25.582;2024-02-26T05:38:48;13.50;;;5.70;;
84023;SDS011;74109;45.636;25.582;2024-02-26T05:41:47;16.70;;;6.70;;
84023;SDS011;74109;45.636;25.582;2024-02-26T05:45:26;11.80;;;5.60;;
84023;SDS011;74109;45.636;25.582;2024-02-26T05:55:33;13.20;;;5.80;;
84023;SDS011;74109;45.636;25.582;2024-02-26T05:58:00;14.20;;;6.20;;
84023;SDS011;74109;45.636;25.582;2024-02-26T06:00:37;12.40;;;5.90;;
84023;SDS011;74109;45.636;25.582;2024-02-26T06:03:37;12.00;;;5.20;;
84023;SDS011;74109;45.636;25.582;2024-02-26T06:06:44;16.50;;;6.90;;
84023;SDS011;74109;45.636;25.582;2024-02-26T06:09:46;14.40;;;7.40;;
84023;SDS011;74109;45.636;25.582;2024-02-26T06:12:34;15.30;;;8.40;;
84023;SDS011;74109;45.636;25.582;2024-02-26T06:15:07;16.20;;;8.40;;
84023;SDS011;74109;45.636;25.582;2024-02-26T06:18:02;19.20;;;9.20;;
84023;SDS011;74109;45.636;25.582;2024-02-26T06:20:52;18.50;;;9.50;;
84023;SDS011;74109;45.636;25.582;2024-02-26T06:23:24;15.40;;;7.50;;
84023;SDS011;74109;45.636;25.582;2024-02-26T06:26:12;14.70;;;8.40;;
84023;SDS011;74109;45.636;25.582;2024-02-26T06:28:42;20.00;;;9.30;;
84023;SDS011;74109;45.636;25.582;2024-02-26T06:31:16;17.00;;;8.90;;
84023;SDS011;74109;45.636;25.582;2024-02-26T06:34:15;18.10;;;9.10;;
84023;SDS011;74109;45.636;25.582;2024-02-26T06:37:03;13.90;;;7.40;;
84023;SDS011;74109;45.636;25.582;2024-02-26T06:39:36;18.10;;;8.70;;
84023;SDS011;74109;45.636;25.582;2024-02-26T06:42:06;17.30;;;8.20;;
84023;SDS011;74109;45.636;25.582;2024-02-26T06:44:59;13.60;;;7.40;;
84023;SDS011;74109;45.636;25.582;2024-02-26T06:48:11;17.80;;;8.40;;
84023;SDS011;74109;45.636;25.582;2024-02-26T06:50:53;13.20;;;7.30;;
84023;SDS011;74109;45.636;25.582;2024-02-26T06:54:04;12.30;;;6.80;;
84023;SDS011;74109;45.636;25.582;2024-02-26T06:56:31;13.40;;;7.00;;
84023;SDS011;74109;45.636;25.582;2024-02-26T06:59:28;19.20;;;9.10;;
84023;SDS011;74109;45.636;25.582;2024-02-26T07:02:21;19.00;;;8.60;;
84023;SDS011;74109;45.636;25.582;2024-02-26T07:04:51;14.80;;;7.20;;
84023;SDS011;74109;45.636;25.582;2024-02-26T07:10:14;18.30;;;7.90;;
84023;SDS011;74109;45.636;25.582;2024-02-26T07:12:48;12.90;;;6.80;;
84023;SDS011;74109;45.636;25.582;2024-02-26T07:15:56;11.60;;;6.60;;
84023;SDS011;74109;45.636;25.582;2024-02-26T07:18:31;19.30;;;9.60;;
84023;SDS011;74109;45.636;25.582;2024-02-26T07:21:04;18.10;;;9.10;;
84023;SDS011;74109;45.636;25.582;2024-02-26T07:23:34;9.60;;;5.70;;
84023;SDS011;74109;45.636;25.582;2024-02-26T07:26:04;11.60;;;6.70;;
84023;SDS011;74109;45.636;25.582;2024-02-26T07:28:51;9.80;;;5.70;;
84023;SDS011;74109;45.636;25.582;2024-02-26T07:31:21;18.80;;;8.80;;
84023;SDS011;74109;45.636;25.582;2024-02-26T07:34:05;19.40;;;10.10;;
84023;SDS011;74109;45.636;25.582;2024-02-26T07:36:43;18.20;;;9.70;;
84023;SDS011;74109;45.636;25.582;2024-02-26T07:39:21;12.20;;;7.00;;
84023;SDS011;74109;45.636;25.582;2024-02-26T07:42:12;19.50;;;10.30;;
84023;SDS011;74109;45.636;25.582;2024-02-26T07:44:40;21.70;;;10.70;;
84023;SDS011;74109;45.636;25.582;2024-02-26T07:50:22;21.70;;;11.60;;
84023;SDS011;74109;45.636;25.582;2024-02-26T07:52:58;38.00;;;19.00;;
84023;SDS011;74109;45.636;25.582;2024-02-26T07:55:26;39.30;;;19.10;;
84023;SDS011;74109;45.636;25.582;2024-02-26T07:58:16;24.10;;;12.60;;
84023;SDS011;74109;45.636;25.582;2024-02-26T08:01:24;22.50;;;10.10;;
84023;SDS011;74109;45.636;25.582;2024-02-26T08:04:00;33.00;;;15.80;;
84023;SDS011;74109;45.636;25.582;2024-02-26T08:06:35;21.70;;;13.90;;
84023;SDS011;74109;45.636;25.582;2024-02-26T08:09:55;22.60;;;12.60;;
84023;SDS011;74109;45.636;25.582;2024-02-26T08:13:07;22.50;;;12.70;;
84023;SDS011;74109;45.636;25.582;2024-02-26T08:15:33;15.90;;;10.30;;
84023;SDS011;74109;45.636;25.582;2024-02-26T08:21:16;19.50;;;10.00;;
84023;SDS011;74109;45.636;25.582;2024-02-26T08:23:46;21.50;;;11.30;;
84023;SDS011;74109;45.636;25.582;2024-02-26T08:26:20;15.50;;;8.70;;
84023;SDS011;74109;45.636;25.582;2024-02-26T08:29:10;24.90;;;13.40;;
84023;SDS011;74109;45.636;25.582;2024-02-26T08:34:36;27.00;;;13.60;;
84023;SDS011;74109;45.636;25.582;2024-02-26T08:37:06;19.10;;;11.10;;
84023;SDS011;74109;45.636;25.582;2024-02-26T08:39:36;19.90;;;11.40;;
84023;SDS011;74109;45.636;25.582;2024-02-26T08:45:37;23.00;;;13.50;;
84023;SDS011;74109;45.636;25.582;2024-02-26T08:48:38;22.20;;;11.30;;
84023;SDS011;74109;45.636;25.582;2024-02-26T08:51:25;21.30;;;12.40;;
84023;SDS011;74109;45.636;25.582;2024-02-26T08:54:31;18.20;;;9.70;;
84023;SDS011;74109;45.636;25.582;2024-02-26T08:57:11;26.40;;;13.60;;
84023;SDS011;74109;45.636;25.582;2024-02-26T08:59:41;19.20;;;11.40;;
84023;SDS011;74109;45.636;25.582;2024-02-26T09:02:12;22.50;;;11.00;;
84023;SDS011;74109;45.636;25.582;2024-02-26T09:09:01;28.30;;;12.30;;
84023;SDS011;74109;45.636;25.582;2024-02-26T09:12:02;25.10;;;11.20;;
84023;SDS011;74109;45.636;25.582;2024-02-26T09:18:41;18.00;;;9.40;;
84023;SDS011;74109;45.636;25.582;2024-02-26T09:21:19;19.80;;;10.40;;
84023;SDS011;74109;45.636;25.582;2024-02-26T09:23:52;22.60;;;12.10;;
84023;SDS011;74109;45.636;25.582;2024-02-26T09:26:22;22.10;;;12.80;;
84023;SDS011;74109;45.636;25.582;2024-02-26T09:28:52;36.20;;;18.80;;
84023;SDS011;74109;45.636;25.582;2024-02-26T09:31:24;35.90;;;18.90;;
84023;SDS011;74109;45.636;25.582;2024-02-26T09:33:54;59.80;;;33.50;;
84023;SDS011;74109;45.636;25.582;2024-02-26T09:36:54;26.30;;;15.20;;
84023;SDS011;74109;45.636;25.582;2024-02-26T09:39:31;23.40;;;10.60;;
84023;SDS011;74109;45.636;25.582;2024-02-26T09:42:01;34.60;;;17.20;;
84023;SDS011;74109;45.636;25.582;2024-02-26T09:44:38;34.20;;;17.20;;
84023;SDS011;74109;45.636;25.582;2024-02-26T09:47:14;17.40;;;10.40;;
84023;SDS011;74109;45.636;25.582;2024-02-26T09:49:56;44.70;;;23.10;;
84023;SDS011;74109;45.636;25.582;2024-02-26T09:52:57;42.00;;;19.50;;
84023;SDS011;74109;45.636;25.582;2024-02-26T09:55:36;24.70;;;12.00;;
84023;SDS011;74109;45.636;25.582;2024-02-26T09:58:24;21.30;;;11.60;;
84023;SDS011;74109;45.636;25.582;2024-02-26T10:00:59;21.10;;;9.00;;
84023;SDS011;74109;45.636;25.582;2024-02-26T10:03:42;19.00;;;9.90;;
84023;SDS011;74109;45.636;25.582;2024-02-26T10:11:37;24.20;;;15.60;;
84023;SDS011;74109;45.636;25.582;2024-02-26T10:14:27;20.80;;;12.30;;
84023;SDS011;74109;45.636;25.582;2024-02-26T10:17:17;17.30;;;8.60;;
84023;SDS011;74109;45.636;25.582;2024-02-26T10:19:49;17.30;;;9.70;;
84023;SDS011;74109;45.636;25.582;2024-02-26T10:22:40;18.60;;;9.10;;
84023;SDS011;74109;45.636;25.582;2024-02-26T10:25:17;14.40;;;7.80;;
84023;SDS011;74109;45.636;25.582;2024-02-26T10:27:48;13.40;;;9.10;;
84023;SDS011;74109;45.636;25.582;2024-02-26T10:30:21;20.70;;;12.20;;
84023;SDS011;74109;45.636;25.582;2024-02-26T10:32:55;17.60;;;9.40;;
84023;SDS011;74109;45.636;25.582;2024-02-26T10:35:25;14.10;;;8.00;;
84023;SDS011;74109;45.636;25.582;2024-02-26T10:38:04;18.90;;;10.80;;
84023;SDS011;74109;45.636;25.582;2024-02-26T10:40:32;17.40;;;11.60;;
84023;SDS011;74109;45.636;25.582;2024-02-26T10:42:59;15.80;;;9.30;;
84023;SDS011;74109;45.636;25.582;2024-02-26T10:45:49;14.90;;;8.60;;
84023;SDS011;74109;45.636;25.582;2024-02-26T10:48:36;20.10;;;10.30;;
84023;SDS011;74109;45.636;25.582;2024-02-26T10:51:30;14.40;;;8.20;;
84023;SDS011;74109;45.636;25.582;2024-02-26T10:54:21;23.80;;;14.10;;
84023;SDS011;74109;45.636;25.582;2024-02-26T10:56:55;27.10;;;14.50;;
84023;SDS011;74109;45.636;25.582;2024-02-26T10:59:24;18.70;;;11.70;;
84023;SDS011;74109;45.636;25.582;2024-02-26T11:01:51;22.30;;;10.60;;
84023;SDS011;74109;45.636;25.582;2024-02-26T11:04:39;23.70;;;13.50;;
84023;SDS011;74109;45.636;25.582;2024-02-26T11:07:07;31.40;;;17.90;;
84023;SDS011;74109;45.636;25.582;2024-02-26T11:10:10;22.80;;;11.90;;
84023;SDS011;74109;45.636;25.582;2024-02-26T11:15:38;21.50;;;12.50;;
84023;SDS011;74109;45.636;25.582;2024-02-26T11:18:07;24.20;;;10.80;;
84023;SDS011;74109;45.636;25.582;2024-02-26T11:20:43;17.40;;;9.10;;
84023;SDS011;74109;45.636;25.582;2024-02-26T11:23:17;16.40;;;9.00;;
84023;SDS011;74109;45.636;25.582;2024-02-26T11:26:08;19.10;;;9.30;;
84023;SDS011;74109;45.636;25.582;2024-02-26T11:28:47;15.20;;;7.20;;
84023;SDS011;74109;45.636;25.582;2024-02-26T11:31:38;11.60;;;6.00;;
84023;SDS011;74109;45.636;25.582;2024-02-26T11:34:07;11.70;;;7.10;;
84023;SDS011;74109;45.636;25.582;2024-02-26T11:36:41;11.00;;;6.10;;
84023;SDS011;74109;45.636;25.582;2024-02-26T11:39:26;17.20;;;9.00;;
84023;SDS011;74109;45.636;25.582;2024-02-26T11:41:53;13.30;;;7.40;;
84023;SDS011;74109;45.636;25.582;2024-02-26T11:44:30;24.60;;;12.00;;
84023;SDS011;74109;45.636;25.582;2024-02-26T11:47:21;15.80;;;7.10;;
84023;SDS011;74109;45.636;25.582;2024-02-26T11:53:23;13.00;;;5.80;;
84023;SDS011;74109;45.636;25.582;2024-02-26T11:56:21;9.40;;;4.80;;
84023;SDS011;74109;45.636;25.582;2024-02-26T11:59:08;7.90;;;4.40;;
84023;SDS011;74109;45.636;25.582;2024-02-26T12:01:59;24.10;;;12.20;;
84023;SDS011;74109;45.636;25.582;2024-02-26T12:04:30;14.30;;;7.20;;
84023;SDS011;74109;45.636;25.582;2024-02-26T12:07:20;19.20;;;10.90;;
84023;SDS011;74109;45.636;25.582;2024-02-26T12:10:08;11.50;;;5.60;;
84023;SDS011;74109;45.636;25.582;2024-02-26T12:12:47;10.80;;;4.40;;
84023;SDS011;74109;45.636;25.582;2024-02-26T12:15:23;15.10;;;7.40;;
84023;SDS011;74109;45.636;25.582;2024-02-26T12:18:26;5.60;;;2.80;;
84023;SDS011;74109;45.636;25.582;2024-02-26T12:21:07;6.20;;;2.10;;
84023;SDS011;74109;45.636;25.582;2024-02-26T12:23:39;5.60;;;1.60;;
84023;SDS011;74109;45.636;25.582;2024-02-26T12:26:09;5.30;;;1.50;;
84023;SDS011;74109;45.636;25.582;2024-02-26T12:28:43;2.40;;;1.40;;
84023;SDS011;74109;45.636;25.582;2024-02-26T12:31:33;4.20;;;1.50;;
84023;SDS011;74109;45.636;25.582;2024-02-26T12:44:54;4.10;;;1.80;;
84023;SDS011;74109;45.636;25.582;2024-02-26T12:47:36;2.40;;;1.20;;
84023;SDS011;74109;45.636;25.582;2024-02-26T12:50:05;4.90;;;2.00;;
84023;SDS011;74109;45.636;25.582;2024-02-26T12:52:40;2.70;;;1.40;;
84023;SDS011;74109;45.636;25.582;2024-02-26T12:55:11;4.30;;;1.60;;
84023;SDS011;74109;45.636;25.582;2024-02-26T12:57:49;6.00;;;2.10;;
84023;SDS011;74109;45.636;25.582;2024-02-26T13:00:25;3.20;;;1.60;;
84023;SDS011;74109;45.636;25.582;2024-02-26T13:02:57;4.60;;;2.40;;
84023;SDS011;74109;45.636;25.582;2024-02-26T13:05:29;4.30;;;1.20;;
84023;SDS011;74109;45.636;25.582;2024-02-26T13:08:01;6.50;;;2.50;;
84023;SDS011;74109;45.636;25.582;2024-02-26T13:10:38;3.70;;;1.50;;
84023;SDS011;74109;45.636;25.582;2024-02-26T13:13:17;4.10;;;1.70;;
84023;SDS011;74109;45.636;25.582;2024-02-26T13:15:45;2.70;;;1.60;;
84023;SDS011;74109;45.636;25.582;2024-02-26T13:18:15;3.80;;;1.70;;
84023;SDS011;74109;45.636;25.582;2024-02-26T13:20:48;4.90;;;2.00;;
84023;SDS011;74109;45.636;25.582;2024-02-26T13:23:15;4.70;;;1.20;;
84023;SDS011;74109;45.636;25.582;2024-02-26T13:25:44;2.70;;;1.70;;
84023;SDS011;74109;45.636;25.582;2024-02-26T13:28:18;6.50;;;1.50;;
84023;SDS011;74109;45.636;25.582;2024-02-26T13:30:52;4.00;;;1.30;;
84023;SDS011;74109;45.636;25.582;2024-02-26T13:33:40;4.00;;;1.50;;
84023;SDS011;74109;45.636;25.582;2024-02-26T13:36:07;5.00;;;1.60;;
84023;SDS011;74109;45.636;25.582;2024-02-26T13:42:17;3.50;;;1.70;;
84023;SDS011;74109;45.636;25.582;2024-02-26T13:45:04;4.40;;;1.10;;
84023;SDS011;74109;45.636;25.582;2024-02-26T13:47:46;2.50;;;1.30;;
84023;SDS011;74109;45.636;25.582;2024-02-26T13:50:52;5.60;;;2.20;;
84023;SDS011;74109;45.636;25.582;2024-02-26T13:53:30;2.90;;;1.70;;
84023;SDS011;74109;45.636;25.582;2024-02-26T13:56:01;5.00;;;2.00;;
84023;SDS011;74109;45.636;25.582;2024-02-26T13:58:31;3.40;;;1.20;;
84023;SDS011;74109;45.636;25.582;2024-02-26T14:01:02;5.20;;;1.90;;
84023;SDS011;74109;45.636;25.582;2024-02-26T14:03:30;4.60;;;1.80;;
84023;SDS011;74109;45.636;25.582;2024-02-26T14:06:00;4.20;;;2.30;;
84023;SDS011;74109;45.636;25.582;2024-02-26T14:08:28;4.40;;;2.10;;
84023;SDS011;74109;45.636;25.582;2024-02-26T14:11:24;10.30;;;2.00;;
84023;SDS011;74109;45.636;25.582;2024-02-26T14:13:51;4.50;;;2.20;;
84023;SDS011;74109;45.636;25.582;2024-02-26T14:16:26;6.40;;;2.50;;
84023;SDS011;74109;45.636;25.582;2024-02-26T14:19:07;4.60;;;1.90;;
84023;SDS011;74109;45.636;25.582;2024-02-26T14:21:48;4.20;;;1.90;;
84023;SDS011;74109;45.636;25.582;2024-02-26T14:24:21;5.10;;;1.70;;
84023;SDS011;74109;45.636;25.582;2024-02-26T14:27:09;6.60;;;1.90;;
84023;SDS011;74109;45.636;25.582;2024-02-26T14:29:51;3.90;;;1.70;;
84023;SDS011;74109;45.636;25.582;2024-02-26T14:32:41;4.80;;;1.80;;
84023;SDS011;74109;45.636;25.582;2024-02-26T14:35:12;6.20;;;2.10;;
84023;SDS011;74109;45.636;25.582;2024-02-26T14:37:48;5.20;;;2.80;;
84023;SDS011;74109;45.636;25.582;2024-02-26T14:40:30;6.00;;;1.90;;
84023;SDS011;74109;45.636;25.582;2024-02-26T14:43:00;5.00;;;2.70;;
84023;SDS011;74109;45.636;25.582;2024-02-26T14:45:49;6.70;;;2.30;;
84023;SDS011;74109;45.636;25.582;2024-02-26T14:49:02;3.60;;;1.70;;
84023;SDS011;74109;45.636;25.582;2024-02-26T14:51:30;5.40;;;1.70;;
84023;SDS011;74109;45.636;25.582;2024-02-26T14:54:11;4.80;;;2.30;;
84023;SDS011;74109;45.636;25.582;2024-02-26T14:56:39;6.70;;;2.80;;
84023;SDS011;74109;45.636;25.582;2024-02-26T14:59:07;5.30;;;2.40;;
84023;SDS011;74109;45.636;25.582;2024-02-26T15:05:02;5.90;;;2.80;;
84023;SDS011;74109;45.636;25.582;2024-02-26T15:10:42;5.40;;;2.00;;
84023;SDS011;74109;45.636;25.582;2024-02-26T15:13:36;11.00;;;3.50;;
84023;SDS011;74109;45.636;25.582;2024-02-26T15:16:16;5.20;;;2.50;;
84023;SDS011;74109;45.636;25.582;2024-02-26T15:19:07;4.00;;;1.90;;
84023;SDS011;74109;45.636;25.582;2024-02-26T15:23:00;7.10;;;2.10;;
84023;SDS011;74109;45.636;25.582;2024-02-26T15:25:29;4.90;;;2.80;;
84023;SDS011;74109;45.636;25.582;2024-02-26T15:28:00;5.50;;;2.30;;
84023;SDS011;74109;45.636;25.582;2024-02-26T15:30:42;5.00;;;2.00;;
84023;SDS011;74109;45.636;25.582;2024-02-26T15:33:12;5.00;;;2.40;;
84023;SDS011;74109;45.636;25.582;2024-02-26T15:36:00;4.30;;;2.00;;
84023;SDS011;74109;45.636;25.582;2024-02-26T15:38:55;8.60;;;3.00;;
84023;SDS011;74109;45.636;25.582;2024-02-26T15:44:29;6.90;;;2.00;;
84023;SDS011;74109;45.636;25.582;2024-02-26T15:50:27;4.80;;;2.40;;
84023;SDS011;74109;45.636;25.582;2024-02-26T15:53:03;6.10;;;2.60;;
84023;SDS011;74109;45.636;25.582;2024-02-26T15:55:45;8.20;;;3.10;;
84023;SDS011;74109;45.636;25.582;2024-02-26T15:58:53;9.60;;;2.90;;
84023;SDS011;74109;45.636;25.582;2024-02-26T16:01:23;29.00;;;11.60;;
84023;SDS011;74109;45.636;25.582;2024-02-26T16:04:10;44.30;;;16.30;;
84023;SDS011;74109;45.636;25.582;2024-02-26T16:13:59;6.40;;;2.90;;
84023;SDS011;74109;45.636;25.582;2024-02-26T16:16:32;7.10;;;2.10;;
84023;SDS011;74109;45.636;25.582;2024-02-26T16:19:41;6.90;;;3.20;;
84023;SDS011;74109;45.636;25.582;2024-02-26T16:22:08;6.40;;;2.70;;
84023;SDS011;74109;45.636;25.582;2024-02-26T16:25:06;5.30;;;2.60;;
84023;SDS011;74109;45.636;25.582;2024-02-26T16:27:54;4.30;;;2.20;;
84023;SDS011;74109;45.636;25.582;2024-02-26T16:30:34;4.10;;;2.80;;
84023;SDS011;74109;45.636;25.582;2024-02-26T16:33:07;9.20;;;3.00;;
84023;SDS011;74109;45.636;25.582;2024-02-26T16:35:38;5.60;;;2.20;;
84023;SDS011;74109;45.636;25.582;2024-02-26T16:38:49;6.30;;;3.00;;
84023;SDS011;74109;45.636;25.582;2024-02-26T16:41:37;4.40;;;2.20;;
84023;SDS011;74109;45.636;25.582;2024-02-26T16:44:11;4.30;;;2.20;;
84023;SDS011;74109;45.636;25.582;2024-02-26T16:47:03;7.80;;;2.40;;
84023;SDS011;74109;45.636;25.582;2024-02-26T16:49:33;4.30;;;1.50;;
84023;SDS011;74109;45.636;25.582;2024-02-26T16:52:22;6.70;;;2.40;;
84023;SDS011;74109;45.636;25.582;2024-02-26T16:55:01;7.00;;;2.20;;
84023;SDS011;74109;45.636;25.582;2024-02-26T16:57:46;4.50;;;2.10;;
84023;SDS011;74109;45.636;25.582;2024-02-26T17:00:56;5.90;;;2.80;;
84023;SDS011;74109;45.636;25.582;2024-02-26T17:03:26;5.80;;;2.60;;
84023;SDS011;74109;45.636;25.582;2024-02-26T17:09:51;7.10;;;2.00;;
84023;SDS011;74109;45.636;25.582;2024-02-26T17:20:08;7.80;;;2.50;;
84023;SDS011;74109;45.636;25.582;2024-02-26T17:22:38;5.70;;;2.70;;
84023;SDS011;74109;45.636;25.582;2024-02-26T17:25:26;6.90;;;3.40;;
84023;SDS011;74109;45.636;25.582;2024-02-26T17:31:26;6.30;;;3.40;;
84023;SDS011;74109;45.636;25.582;2024-02-26T17:34:05;7.70;;;3.50;;
84023;SDS011;74109;45.636;25.582;2024-02-26T17:36:55;9.30;;;3.90;;
84023;SDS011;74109;45.636;25.582;2024-02-26T17:43:32;4.00;;;2.40;;
84023;SDS011;74109;45.636;25.582;2024-02-26T17:49:19;7.20;;;3.30;;
84023;SDS011;74109;45.636;25.582;2024-02-26T17:51:53;7.70;;;3.40;;
84023;SDS011;74109;45.636;25.582;2024-02-26T17:54:20;8.20;;;3.10;;
84023;SDS011;74109;45.636;25.582;2024-02-26T17:56:53;7.90;;;3.60;;
84023;SDS011;74109;45.636;25.582;2024-02-26T17:59:37;6.40;;;3.20;;
84023;SDS011;74109;45.636;25.582;2024-02-26T18:02:27;11.00;;;4.10;;
84023;SDS011;74109;45.636;25.582;2024-02-26T18:05:37;5.00;;;1.70;;
84023;SDS011;74109;45.636;25.582;2024-02-26T18:08:10;5.70;;;2.60;;
84023;SDS011;74109;45.636;25.582;2024-02-26T18:10:54;6.70;;;3.50;;
84023;SDS011;74109;45.636;25.582;2024-02-26T18:13:25;5.90;;;2.40;;
84023;SDS011;74109;45.636;25.582;2024-02-26T18:16:16;10.50;;;3.90;;
84023;SDS011;74109;45.636;25.582;2024-02-26T18:19:03;9.20;;;3.20;;
84023;SDS011;74109;45.636;25.582;2024-02-26T18:22:24;8.00;;;3.30;;
84023;SDS011;74109;45.636;25.582;2024-02-26T18:25:31;7.70;;;2.40;;